Lake Worth, FL

9:33 AM EDT on August 22, 2014 (GMT -0400)
Palm Beach International | Change Station
CLOSE
Current Station
Airport
Location: West Palm Beach,
Elevation: 20 ft
Nearby Weather Stations

Elev 20 ft 26.68 °N, 80.10 °W | Updated 12 minutes ago

Thunderstorm
Thunderstorm
83 °F
Feels Like 92 °F
N
4
Wind Variable Wind from NW

Today
High -- | Low -- °F
--% Chance of Precip.
Yesterday
High -- | Low -- °F
Precip. -- in
6:55 AM 7:50 PM
Waning Crescent, 8% visible
Pressure 30.07 in
Visibility 10.0 miles
Clouds Scattered Clouds 2400 ft
Scattered Clouds 25000 ft
Heat Index 92 °F
Dew Point 77 °F
Humidity 82%
Rainfall 0.00 in
Snow Depth Not available.
UV 3 out of 12
Pollen 4.70 out of 12
Air Quality Not available.
Flu Activity Not available.
SPECI KPBI 221321Z 31003KT 10SM TS SCT024CB SCT250 28/25 A3007 RMK AO2 TSB21 OCNL LTGICCG NE-E TS NE-E MOV N VCSH NE-E T02830250

More Conditions Fewer Conditions

Pressure 30.07 in
Visibility 10.0 miles
Clouds Scattered Clouds 2400 ft
Scattered Clouds 25000 ft
Heat Index 92 °F
Dew Point 77 °F
Humidity 82%
Rainfall 0.00 in
Snow Depth Not available.
UV 3 out of 12
Pollen 4.70 out of 12
Air Quality Not available.
Flu Activity Not available.
SPECI KPBI 221321Z 31003KT 10SM TS SCT024CB SCT250 28/25 A3007 RMK AO2 TSB21 OCNL LTGICCG NE-E TS NE-E MOV N VCSH NE-E T02830250

More Conditions Fewer Conditions

10-Day Weather Forecast

Almanac

Astronomy

Aug. 22, 2014 Rise Set
Actual Time 6:55 AM EDT 7:50 PM EDT
Civil Twilight 6:31 AM EDT 8:14 PM EDT
Nautical Twilight 6:03 AM EDT 8:42 PM EDT
Astronomical Twilight 5:34 AM EDT 9:11 PM EDT
Moon 4:24 AM EDT 5:53 PM EDT
Length of Visible Light 13h 42m
Length of Day
12h 54m
Tomorrow will be 1m 26s shorter.
Waning Crescent, 8% of the Moon is Illuminated
Today
Waning Crescent
Aug 25
New
Sep 2
First Quarter
Sep 8
Full
Sep 15
Last Quarter

Today's Extremes

State Highs State Lows

Community

WunderPhotos

Upload Photos

1,746,168 photos uploaded!

Nearby

Air Quality

  Air Quality AQ Index Pollutant
Yesterday Good
OZONE
Friday Good
OZONE
Friday Good
PM2.5

Snow Depth

Station Depth Elevation
No new snow has been reported.

Earthquake Activity

City Distance Mag. Time & Date
No recent earthquake activity has been reported nearby.
Minimum magnitude displayed is 2.5.

Coastal Water Temperatures

Place Temperature
Lake Worth, FL 87.1 °F
Virginia Key, FL 89.1 °F

Nearby Weather Stations